sensor_id;sensor_type;location;lat;lon;timestamp;P1;durP1;ratioP1;P2;durP2;ratioP2
23236;SDS011;11787;52.018;8.570;2023-06-26T01:36:46;7.80;;;7.10;;
23236;SDS011;11787;52.018;8.570;2023-06-26T02:42:58;8.10;;;7.30;;
23236;SDS011;11787;52.018;8.570;2023-06-26T04:27:29;6.00;;;5.40;;
23236;SDS011;11787;52.018;8.570;2023-06-26T04:29:55;6.00;;;5.00;;
23236;SDS011;11787;52.018;8.570;2023-06-26T10:13:44;10.65;;;6.32;;
23236;SDS011;11787;52.018;8.570;2023-06-26T10:16:12;13.27;;;6.00;;
23236;SDS011;11787;52.018;8.570;2023-06-26T10:18:41;8.90;;;5.40;;
23236;SDS011;11787;52.018;8.570;2023-06-26T10:21:08;9.13;;;6.38;;
23236;SDS011;11787;52.018;8.570;2023-06-26T10:23:36;10.60;;;5.85;;
23236;SDS011;11787;52.018;8.570;2023-06-26T10:26:06;7.55;;;5.80;;
23236;SDS011;11787;52.018;8.570;2023-06-26T10:28:33;8.30;;;5.57;;
23236;SDS011;11787;52.018;8.570;2023-06-26T10:31:01;11.20;;;5.88;;
23236;SDS011;11787;52.018;8.570;2023-06-26T10:33:29;10.90;;;5.25;;
23236;SDS011;11787;52.018;8.570;2023-06-26T10:36:11;11.25;;;5.88;;
23236;SDS011;11787;52.018;8.570;2023-06-26T10:41:20;9.40;;;4.85;;
23236;SDS011;11787;52.018;8.570;2023-06-26T10:44:07;9.85;;;5.18;;
23236;SDS011;11787;52.018;8.570;2023-06-26T10:46:55;7.55;;;4.55;;
23236;SDS011;11787;52.018;8.570;2023-06-26T10:49:27;8.77;;;4.97;;
23236;SDS011;11787;52.018;8.570;2023-06-26T10:52:00;9.48;;;4.82;;
23236;SDS011;11787;52.018;8.570;2023-06-26T10:54:30;7.55;;;4.50;;
23236;SDS011;11787;52.018;8.570;2023-06-26T10:56:58;6.60;;;4.38;;
23236;SDS011;11787;52.018;8.570;2023-06-26T10:59:24;10.90;;;5.03;;
23236;SDS011;11787;52.018;8.570;2023-06-26T11:02:08;11.07;;;4.57;;
23236;SDS011;11787;52.018;8.570;2023-06-26T11:04:38;9.93;;;4.70;;
23236;SDS011;11787;52.018;8.570;2023-06-26T11:07:23;8.02;;;4.63;;
23236;SDS011;11787;52.018;8.570;2023-06-26T11:10:07;8.15;;;4.65;;
23236;SDS011;11787;52.018;8.570;2023-06-26T11:15:13;6.78;;;3.60;;
23236;SDS011;11787;52.018;8.570;2023-06-26T11:17:40;7.40;;;4.20;;
23236;SDS011;11787;52.018;8.570;2023-06-26T11:20:07;6.90;;;4.03;;
23236;SDS011;11787;52.018;8.570;2023-06-26T11:22:34;10.13;;;4.20;;
23236;SDS011;11787;52.018;8.570;2023-06-26T11:25:02;9.02;;;3.78;;
23236;SDS011;11787;52.018;8.570;2023-06-26T11:30:03;7.57;;;3.40;;
23236;SDS011;11787;52.018;8.570;2023-06-26T11:32:30;4.57;;;2.97;;
23236;SDS011;11787;52.018;8.570;2023-06-26T11:34:57;6.45;;;3.00;;
23236;SDS011;11787;52.018;8.570;2023-06-26T11:37:24;7.00;;;2.90;;
23236;SDS011;11787;52.018;8.570;2023-06-26T11:39:49;4.88;;;2.80;;
23236;SDS011;11787;52.018;8.570;2023-06-26T11:42:16;5.18;;;2.80;;
23236;SDS011;11787;52.018;8.570;2023-06-26T11:44:42;6.88;;;2.67;;
23236;SDS011;11787;52.018;8.570;2023-06-26T11:47:12;4.15;;;2.78;;
23236;SDS011;11787;52.018;8.570;2023-06-26T11:49:39;3.92;;;2.67;;
23236;SDS011;11787;52.018;8.570;2023-06-26T11:52:07;5.13;;;3.15;;
23236;SDS011;11787;52.018;8.570;2023-06-26T11:54:33;3.20;;;2.30;;
23236;SDS011;11787;52.018;8.570;2023-06-26T11:56:58;4.90;;;2.78;;
23236;SDS011;11787;52.018;8.570;2023-06-26T11:59:32;5.32;;;2.05;;
23236;SDS011;11787;52.018;8.570;2023-06-26T12:02:07;4.80;;;2.30;;
23236;SDS011;11787;52.018;8.570;2023-06-26T12:04:38;5.35;;;2.67;;
23236;SDS011;11787;52.018;8.570;2023-06-26T12:07:06;3.70;;;2.10;;
23236;SDS011;11787;52.018;8.570;2023-06-26T12:09:34;2.83;;;2.28;;
23236;SDS011;11787;52.018;8.570;2023-06-26T12:12:10;3.95;;;2.28;;
23236;SDS011;11787;52.018;8.570;2023-06-26T12:14:39;4.55;;;2.50;;
23236;SDS011;11787;52.018;8.570;2023-06-26T12:17:09;6.43;;;2.50;;
23236;SDS011;11787;52.018;8.570;2023-06-26T12:19:40;4.05;;;1.83;;
23236;SDS011;11787;52.018;8.570;2023-06-26T12:22:09;6.20;;;2.40;;
23236;SDS011;11787;52.018;8.570;2023-06-26T12:24:36;8.95;;;2.42;;
23236;SDS011;11787;52.018;8.570;2023-06-26T12:27:07;3.83;;;2.10;;
23236;SDS011;11787;52.018;8.570;2023-06-26T12:29:34;3.30;;;2.33;;
23236;SDS011;11787;52.018;8.570;2023-06-26T12:32:00;2.95;;;2.10;;
23236;SDS011;11787;52.018;8.570;2023-06-26T12:34:31;5.30;;;2.10;;
23236;SDS011;11787;52.018;8.570;2023-06-26T12:37:02;2.85;;;2.47;;
23236;SDS011;11787;52.018;8.570;2023-06-26T12:40:05;5.20;;;2.20;;
23236;SDS011;11787;52.018;8.570;2023-06-26T12:42:25;2.78;;;1.85;;
23236;SDS011;11787;52.018;8.570;2023-06-26T12:44:51;4.18;;;2.03;;
23236;SDS011;11787;52.018;8.570;2023-06-26T12:47:19;3.03;;;2.08;;
23236;SDS011;11787;52.018;8.570;2023-06-26T12:49:50;3.35;;;2.08;;
23236;SDS011;11787;52.018;8.570;2023-06-26T12:52:16;4.07;;;2.10;;
23236;SDS011;11787;52.018;8.570;2023-06-26T12:54:45;5.35;;;2.00;;
23236;SDS011;11787;52.018;8.570;2023-06-26T12:57:12;3.97;;;2.30;;
23236;SDS011;11787;52.018;8.570;2023-06-26T12:59:41;3.45;;;2.00;;
23236;SDS011;11787;52.018;8.570;2023-06-26T13:02:08;4.22;;;2.50;;
23236;SDS011;11787;52.018;8.570;2023-06-26T13:04:33;2.85;;;2.15;;
23236;SDS011;11787;52.018;8.570;2023-06-26T13:09:26;5.05;;;2.10;;
23236;SDS011;11787;52.018;8.570;2023-06-26T13:24:07;4.32;;;2.20;;
23236;SDS011;11787;52.018;8.570;2023-06-26T13:26:33;3.83;;;2.17;;
23236;SDS011;11787;52.018;8.570;2023-06-26T13:28:58;5.18;;;1.70;;
23236;SDS011;11787;52.018;8.570;2023-06-26T13:31:24;3.72;;;2.35;;
23236;SDS011;11787;52.018;8.570;2023-06-26T13:33:50;3.60;;;2.50;;
23236;SDS011;11787;52.018;8.570;2023-06-26T13:36:19;5.68;;;2.22;;
23236;SDS011;11787;52.018;8.570;2023-06-26T13:38:46;3.97;;;2.20;;
23236;SDS011;11787;52.018;8.570;2023-06-26T13:41:13;2.47;;;2.03;;
23236;SDS011;11787;52.018;8.570;2023-06-26T13:43:38;3.58;;;2.45;;
23236;SDS011;11787;52.018;8.570;2023-06-26T13:46:04;4.28;;;2.50;;
23236;SDS011;11787;52.018;8.570;2023-06-26T19:13:31;3.70;;;1.00;;
23236;SDS011;11787;52.018;8.570;2023-06-26T19:15:56;2.97;;;1.05;;
23236;SDS011;11787;52.018;8.570;2023-06-26T19:18:22;3.10;;;1.05;;
23236;SDS011;11787;52.018;8.570;2023-06-26T19:20:48;1.67;;;0.80;;
23236;SDS011;11787;52.018;8.570;2023-06-26T19:23:13;2.03;;;0.88;;
23236;SDS011;11787;52.018;8.570;2023-06-26T19:25:39;3.60;;;1.10;;
23236;SDS011;11787;52.018;8.570;2023-06-26T19:28:05;1.50;;;0.93;;
23236;SDS011;11787;52.018;8.570;2023-06-26T19:30:30;3.72;;;1.10;;
23236;SDS011;11787;52.018;8.570;2023-06-26T19:32:57;4.50;;;1.20;;
23236;SDS011;11787;52.018;8.570;2023-06-26T19:35:22;3.38;;;1.00;;
23236;SDS011;11787;52.018;8.570;2023-06-26T19:37:48;4.25;;;0.93;;
23236;SDS011;11787;52.018;8.570;2023-06-26T19:40:13;2.58;;;0.93;;
23236;SDS011;11787;52.018;8.570;2023-06-26T19:42:39;2.05;;;0.95;;
23236;SDS011;11787;52.018;8.570;2023-06-26T19:45:05;3.00;;;1.30;;
23236;SDS011;11787;52.018;8.570;2023-06-26T19:47:32;3.13;;;1.40;;
23236;SDS011;11787;52.018;8.570;2023-06-26T19:49:58;3.83;;;1.58;;
23236;SDS011;11787;52.018;8.570;2023-06-26T19:52:24;4.50;;;1.33;;
23236;SDS011;11787;52.018;8.570;2023-06-26T19:54:50;3.08;;;1.20;;
23236;SDS011;11787;52.018;8.570;2023-06-26T19:57:15;4.22;;;1.02;;
23236;SDS011;11787;52.018;8.570;2023-06-26T19:59:41;2.75;;;1.17;;
23236;SDS011;11787;52.018;8.570;2023-06-26T20:02:07;3.72;;;1.30;;
23236;SDS011;11787;52.018;8.570;2023-06-26T20:04:32;2.33;;;1.20;;
23236;SDS011;11787;52.018;8.570;2023-06-26T20:06:58;2.22;;;1.00;;
23236;SDS011;11787;52.018;8.570;2023-06-26T20:09:28;4.63;;;1.50;;
23236;SDS011;11787;52.018;8.570;2023-06-26T20:11:55;4.63;;;1.15;;
23236;SDS011;11787;52.018;8.570;2023-06-26T20:14:22;2.92;;;1.00;;
23236;SDS011;11787;52.018;8.570;2023-06-26T20:16:47;2.22;;;1.00;;
23236;SDS011;11787;52.018;8.570;2023-06-26T20:19:13;7.35;;;1.30;;
23236;SDS011;11787;52.018;8.570;2023-06-26T20:21:38;2.90;;;1.00;;
23236;SDS011;11787;52.018;8.570;2023-06-26T20:24:04;3.33;;;1.05;;
23236;SDS011;11787;52.018;8.570;2023-06-26T20:26:30;2.75;;;0.80;;
23236;SDS011;11787;52.018;8.570;2023-06-26T20:28:56;2.47;;;1.17;;
23236;SDS011;11787;52.018;8.570;2023-06-26T20:31:21;3.10;;;1.05;;
23236;SDS011;11787;52.018;8.570;2023-06-26T20:33:47;2.60;;;0.93;;
23236;SDS011;11787;52.018;8.570;2023-06-26T20:36:12;5.80;;;1.25;;
23236;SDS011;11787;52.018;8.570;2023-06-26T20:38:38;3.47;;;1.10;;
23236;SDS011;11787;52.018;8.570;2023-06-26T20:41:04;3.10;;;0.90;;
23236;SDS011;11787;52.018;8.570;2023-06-26T20:43:30;2.03;;;1.13;;
23236;SDS011;11787;52.018;8.570;2023-06-26T20:45:56;2.60;;;1.20;;
23236;SDS011;11787;52.018;8.570;2023-06-26T20:48:22;4.53;;;1.48;;
23236;SDS011;11787;52.018;8.570;2023-06-26T20:50:48;2.70;;;1.42;;
23236;SDS011;11787;52.018;8.570;2023-06-26T20:53:15;1.67;;;1.00;;
23236;SDS011;11787;52.018;8.570;2023-06-26T20:55:41;3.15;;;1.10;;
23236;SDS011;11787;52.018;8.570;2023-06-26T20:58:06;3.63;;;1.30;;
23236;SDS011;11787;52.018;8.570;2023-06-26T21:00:32;2.60;;;1.20;;
23236;SDS011;11787;52.018;8.570;2023-06-26T21:02:58;3.03;;;1.05;;
23236;SDS011;11787;52.018;8.570;2023-06-26T21:05:23;3.60;;;1.48;;
23236;SDS011;11787;52.018;8.570;2023-06-26T21:07:49;4.75;;;1.30;;
23236;SDS011;11787;52.018;8.570;2023-06-26T21:10:14;1.83;;;1.20;;
23236;SDS011;11787;52.018;8.570;2023-06-26T21:12:43;2.55;;;1.20;;
23236;SDS011;11787;52.018;8.570;2023-06-26T21:15:09;2.55;;;1.25;;
23236;SDS011;11787;52.018;8.570;2023-06-26T21:17:35;4.13;;;1.30;;
23236;SDS011;11787;52.018;8.570;2023-06-26T21:20:01;3.13;;;1.23;;
23236;SDS011;11787;52.018;8.570;2023-06-26T21:22:27;2.60;;;1.00;;
23236;SDS011;11787;52.018;8.570;2023-06-26T21:24:53;1.63;;;0.98;;
23236;SDS011;11787;52.018;8.570;2023-06-26T21:27:18;3.10;;;1.30;;
23236;SDS011;11787;52.018;8.570;2023-06-26T21:29:44;3.47;;;1.65;;
23236;SDS011;11787;52.018;8.570;2023-06-26T21:32:10;3.60;;;1.48;;
23236;SDS011;11787;52.018;8.570;2023-06-26T21:34:35;3.60;;;1.40;;
23236;SDS011;11787;52.018;8.570;2023-06-26T21:37:01;4.82;;;1.60;;
23236;SDS011;11787;52.018;8.570;2023-06-26T21:39:27;3.15;;;1.45;;
23236;SDS011;11787;52.018;8.570;2023-06-26T21:41:52;4.13;;;1.30;;
23236;SDS011;11787;52.018;8.570;2023-06-26T21:44:18;3.22;;;1.00;;
23236;SDS011;11787;52.018;8.570;2023-06-26T21:46:44;3.38;;;1.30;;
23236;SDS011;11787;52.018;8.570;2023-06-26T21:49:10;3.20;;;1.20;;
23236;SDS011;11787;52.018;8.570;2023-06-26T21:51:35;3.28;;;1.55;;
23236;SDS011;11787;52.018;8.570;2023-06-26T21:54:01;4.03;;;1.27;;
23236;SDS011;11787;52.018;8.570;2023-06-26T21:56:27;3.40;;;1.00;;
23236;SDS011;11787;52.018;8.570;2023-06-26T21:58:52;2.15;;;1.17;;
23236;SDS011;11787;52.018;8.570;2023-06-26T22:04:47;3.35;;;1.27;;
23236;SDS011;11787;52.018;8.570;2023-06-26T22:07:13;1.88;;;1.05;;
23236;SDS011;11787;52.018;8.570;2023-06-26T22:09:39;2.05;;;1.13;;
23236;SDS011;11787;52.018;8.570;2023-06-26T22:12:04;4.20;;;1.48;;
23236;SDS011;11787;52.018;8.570;2023-06-26T22:14:30;5.10;;;1.30;;
23236;SDS011;11787;52.018;8.570;2023-06-26T22:16:56;3.70;;;1.45;;
23236;SDS011;11787;52.018;8.570;2023-06-26T22:19:22;2.33;;;1.08;;
23236;SDS011;11787;52.018;8.570;2023-06-26T22:21:47;5.50;;;1.30;;
23236;SDS011;11787;52.018;8.570;2023-06-26T22:24:13;5.47;;;1.52;;
23236;SDS011;11787;52.018;8.570;2023-06-26T22:26:39;3.15;;;1.20;;
23236;SDS011;11787;52.018;8.570;2023-06-26T22:29:05;2.60;;;1.05;;
23236;SDS011;11787;52.018;8.570;2023-06-26T22:31:32;4.57;;;1.40;;
23236;SDS011;11787;52.018;8.570;2023-06-26T22:33:57;5.40;;;1.55;;
23236;SDS011;11787;52.018;8.570;2023-06-26T22:36:23;3.65;;;1.50;;
23236;SDS011;11787;52.018;8.570;2023-06-26T22:38:50;3.80;;;1.40;;
23236;SDS011;11787;52.018;8.570;2023-06-26T22:41:16;4.65;;;1.35;;
23236;SDS011;11787;52.018;8.570;2023-06-26T22:43:42;4.13;;;0.90;;
23236;SDS011;11787;52.018;8.570;2023-06-26T22:46:07;3.53;;;1.10;;
23236;SDS011;11787;52.018;8.570;2023-06-26T22:48:33;4.25;;;1.30;;
23236;SDS011;11787;52.018;8.570;2023-06-26T22:51:02;3.85;;;1.15;;
23236;SDS011;11787;52.018;8.570;2023-06-26T22:53:28;2.92;;;1.15;;
23236;SDS011;11787;52.018;8.570;2023-06-26T22:55:54;2.97;;;1.20;;
23236;SDS011;11787;52.018;8.570;2023-06-26T22:58:19;3.55;;;1.20;;
23236;SDS011;11787;52.018;8.570;2023-06-26T23:00:46;2.47;;;1.00;;
23236;SDS011;11787;52.018;8.570;2023-06-26T23:03:11;4.13;;;1.10;;
23236;SDS011;11787;52.018;8.570;2023-06-26T23:05:37;4.07;;;1.20;;
23236;SDS011;11787;52.018;8.570;2023-06-26T23:08:03;4.55;;;1.20;;
23236;SDS011;11787;52.018;8.570;2023-06-26T23:10:30;2.95;;;1.20;;
23236;SDS011;11787;52.018;8.570;2023-06-26T23:12:56;3.30;;;1.38;;
23236;SDS011;11787;52.018;8.570;2023-06-26T23:15:22;4.95;;;1.30;;
23236;SDS011;11787;52.018;8.570;2023-06-26T23:17:47;3.40;;;1.33;;
23236;SDS011;11787;52.018;8.570;2023-06-26T23:20:13;3.17;;;1.25;;
23236;SDS011;11787;52.018;8.570;2023-06-26T23:22:38;3.30;;;1.10;;
23236;SDS011;11787;52.018;8.570;2023-06-26T23:25:07;4.40;;;1.17;;
23236;SDS011;11787;52.018;8.570;2023-06-26T23:27:33;3.75;;;1.13;;
23236;SDS011;11787;52.018;8.570;2023-06-26T23:30:07;2.50;;;1.00;;
23236;SDS011;11787;52.018;8.570;2023-06-26T23:32:35;5.43;;;1.50;;
23236;SDS011;11787;52.018;8.570;2023-06-26T23:35:01;3.75;;;1.27;;
23236;SDS011;11787;52.018;8.570;2023-06-26T23:37:30;3.80;;;1.17;;
23236;SDS011;11787;52.018;8.570;2023-06-26T23:39:55;2.22;;;1.05;;
23236;SDS011;11787;52.018;8.570;2023-06-26T23:42:21;3.47;;;1.20;;
23236;SDS011;11787;52.018;8.570;2023-06-26T23:44:47;3.47;;;1.30;;
23236;SDS011;11787;52.018;8.570;2023-06-26T23:47:14;4.25;;;1.20;;
23236;SDS011;11787;52.018;8.570;2023-06-26T23:49:40;2.40;;;1.15;;
23236;SDS011;11787;52.018;8.570;2023-06-26T23:52:06;2.22;;;1.00;;
23236;SDS011;11787;52.018;8.570;2023-06-26T23:54:32;2.60;;;1.05;;
23236;SDS011;11787;52.018;8.570;2023-06-26T23:56:57;4.53;;;1.23;;
23236;SDS011;11787;52.018;8.570;2023-06-26T23:59:23;2.38;;;1.05;;
